createdAt,value
2022-09-06T00:01:39.924Z,147405.00
2022-09-06T00:04:09.639Z,147412.34
2022-09-06T00:06:38.890Z,147345.16
2022-09-06T00:09:05.895Z,147387.88
2022-09-06T00:11:33.023Z,147403.78
2022-09-06T00:14:00.071Z,147412.34
2022-09-06T00:16:30.316Z,147430.66
2022-09-06T00:18:58.001Z,147417.22
2022-09-06T00:21:28.220Z,147406.19
2022-09-06T00:23:55.742Z,147351.25
2022-09-06T00:26:23.572Z,147373.25
2022-09-06T00:28:50.683Z,147390.34
2022-09-06T00:31:21.147Z,147362.28
2022-09-06T00:33:48.767Z,147375.72
2022-09-06T00:36:16.599Z,147370.81
2022-09-06T00:38:44.431Z,147262.16
2022-09-06T00:41:14.155Z,147341.50
2022-09-06T00:43:41.585Z,147298.78
2022-09-06T00:46:12.174Z,147341.50
2022-09-06T00:48:40.300Z,147317.09
2022-09-06T00:51:11.653Z,147302.47
2022-09-06T00:53:39.350Z,147237.72
2022-09-06T00:56:06.779Z,147285.34
2022-09-06T00:58:34.560Z,147300.00
2022-09-06T01:01:01.650Z,147270.72
2022-09-06T01:03:28.917Z,147221.84
2022-09-06T01:06:13.201Z,147235.25
2022-09-06T01:08:49.427Z,147275.59
2022-09-06T01:11:34.789Z,147256.06
2022-09-06T01:14:29.299Z,147263.38
2022-09-06T01:17:03.111Z,147262.16
2022-09-06T01:19:52.503Z,147279.28
2022-09-06T01:22:47.484Z,147280.47
2022-09-06T01:25:24.175Z,147282.88
2022-09-06T01:27:51.148Z,147270.72
2022-09-06T01:30:19.526Z,147256.06
2022-09-06T01:33:07.918Z,147190.09
2022-09-06T01:35:50.656Z,147303.66
2022-09-06T01:38:17.773Z,147304.88
2022-09-06T01:40:44.862Z,147300.00
2022-09-06T01:43:18.349Z,147297.56
2022-09-06T01:46:27.499Z,147318.31
2022-09-06T01:49:22.177Z,147326.84
2022-09-06T01:52:04.571Z,147309.75
2022-09-06T01:55:05.596Z,147318.31
2022-09-06T01:57:50.467Z,147375.72
2022-09-06T02:00:19.865Z,147376.91
2022-09-06T02:03:13.172Z,147369.56
2022-09-06T02:06:09.855Z,147373.25
2022-09-06T02:08:44.646Z,147356.13
2022-09-06T02:11:14.557Z,147392.75
2022-09-06T02:13:52.790Z,147383.00
2022-09-06T02:16:23.274Z,147361.03
2022-09-06T02:18:56.773Z,147353.72
2022-09-06T02:21:34.319Z,147380.59
2022-09-06T02:24:05.192Z,147317.09
2022-09-06T02:26:37.841Z,147348.84
2022-09-06T02:29:05.153Z,147368.34
2022-09-06T02:31:38.770Z,147369.56
2022-09-06T02:34:06.779Z,147293.91
2022-09-06T02:36:36.299Z,147334.19
2022-09-06T02:39:05.083Z,147319.50
2022-09-06T02:41:33.192Z,147256.06
2022-09-06T02:44:00.328Z,147405.00
2022-09-06T02:46:27.406Z,147392.75
2022-09-06T02:48:54.681Z,147403.78
2022-09-06T02:51:21.718Z,147400.09
2022-09-06T02:53:48.791Z,147407.47
2022-09-06T02:56:15.827Z,147407.47
2022-09-06T02:58:43.342Z,147385.47
2022-09-06T03:01:10.415Z,147363.47
2022-09-06T03:03:37.622Z,147374.44
2022-09-06T03:06:04.821Z,147343.97
2022-09-06T03:08:34.113Z,147329.31
2022-09-06T03:11:01.611Z,147365.94
2022-09-06T03:13:29.115Z,147409.88
2022-09-06T03:15:58.494Z,147385.47
2022-09-06T03:18:27.348Z,147387.88
2022-09-06T03:20:55.827Z,147370.81
2022-09-06T03:23:25.731Z,147375.72
2022-09-06T03:25:53.123Z,147378.13
2022-09-06T03:28:21.759Z,147376.91
2022-09-06T03:30:51.445Z,147347.63
2022-09-06T03:33:19.337Z,147324.41
2022-09-06T03:36:04.528Z,147306.09
2022-09-06T03:38:31.546Z,147319.50
2022-09-06T03:40:58.859Z,147312.22
2022-09-06T03:43:27.130Z,147317.09
2022-09-06T03:45:57.310Z,147324.41
2022-09-06T03:48:28.169Z,147332.94
2022-09-06T03:50:57.669Z,147319.50
2022-09-06T03:53:26.592Z,147307.34
2022-09-06T03:55:55.516Z,147307.34
2022-09-06T03:58:23.557Z,147315.88
2022-09-06T04:01:03.512Z,147300.00
2022-09-06T04:03:31.134Z,147312.22
2022-09-06T04:05:58.344Z,147300.00
2022-09-06T04:08:26.139Z,147263.38
2022-09-06T04:10:54.909Z,147315.88
2022-09-06T04:13:23.261Z,147280.47
2022-09-06T04:15:50.838Z,147348.84
2022-09-06T04:18:18.485Z,147302.47
2022-09-06T04:20:48.898Z,147295.13
2022-09-06T04:23:16.771Z,147284.16
2022-09-06T04:25:47.972Z,147278.00
2022-09-06T04:28:18.165Z,147237.72
2022-09-06T04:30:46.093Z,147293.91
2022-09-06T04:33:13.111Z,147256.06
2022-09-06T04:35:40.115Z,147202.31
2022-09-06T04:38:07.182Z,147190.09
2022-09-06T04:40:34.183Z,147203.53
2022-09-06T04:43:01.216Z,147197.44
2022-09-06T04:45:28.281Z,147171.78
2022-09-06T04:47:55.491Z,147182.81
2022-09-06T04:50:22.517Z,147148.63
2022-09-06T04:52:49.558Z,147143.75
2022-09-06T04:55:16.714Z,147192.56
2022-09-06T04:57:47.470Z,147126.66
2022-09-06T05:00:16.909Z,147149.81
2022-09-06T05:02:45.058Z,147149.81
2022-09-06T05:05:12.166Z,147112.00
2022-09-06T05:07:39.187Z,147124.22
2022-09-06T05:10:06.385Z,147058.31
2022-09-06T05:12:33.471Z,147082.75
2022-09-06T05:15:00.481Z,147097.38
2022-09-06T05:17:27.499Z,147110.81
2022-09-06T05:19:54.489Z,147142.53
2022-09-06T05:22:21.643Z,147097.38
2022-09-06T05:24:48.673Z,147120.56
2022-09-06T05:27:15.839Z,147115.69
2022-09-06T05:29:42.917Z,147099.78
2022-09-06T05:32:09.929Z,147132.78
2022-09-06T05:34:36.979Z,147151.06
2022-09-06T05:37:04.272Z,147165.72
2022-09-06T05:39:31.562Z,147176.69
2022-09-06T05:41:58.792Z,147169.38
2022-09-06T05:44:25.938Z,147175.47
2022-09-06T05:46:53.550Z,147204.72
2022-09-06T05:49:20.688Z,147216.97
2022-09-06T05:51:51.960Z,147226.72
2022-09-06T05:54:19.038Z,147177.88
2022-09-06T05:56:46.063Z,147248.75
2022-09-06T05:59:13.387Z,147237.72
2022-09-06T06:01:51.654Z,147287.78
2022-09-06T06:04:20.183Z,147319.50
2022-09-06T06:06:47.383Z,147340.28
2022-09-06T06:09:14.668Z,147358.59
2022-09-06T06:11:42.078Z,147402.56
2022-09-06T06:14:09.299Z,147412.34
2022-09-06T06:16:36.682Z,147425.78
2022-09-06T06:19:03.811Z,147440.41
2022-09-06T06:21:33.107Z,147468.50
2022-09-06T06:24:02.789Z,147458.72
2022-09-06T06:26:35.601Z,147507.59
2022-09-06T06:29:03.567Z,147514.94
2022-09-06T06:31:32.001Z,147544.25
2022-09-06T06:34:02.737Z,147574.78
2022-09-06T06:36:31.728Z,147605.34
2022-09-06T06:38:58.834Z,147628.56
2022-09-06T06:41:28.907Z,147661.53
2022-09-06T06:43:58.672Z,147705.53
2022-09-06T06:46:31.478Z,147692.09
2022-09-06T06:48:58.588Z,147678.66
2022-09-06T06:51:32.539Z,147732.47
2022-09-06T06:53:59.949Z,147758.13
2022-09-06T06:56:29.669Z,147796.00
2022-09-06T06:58:59.583Z,147830.25
2022-09-06T07:01:28.998Z,147843.69
2022-09-06T07:03:56.561Z,147815.59
2022-09-06T07:09:11.868Z,147925.59
2022-09-06T07:11:38.950Z,147935.38
2022-09-06T07:14:06.012Z,147950.09
2022-09-06T07:16:33.094Z,147920.72
2022-09-06T07:19:00.345Z,147989.25
2022-09-06T07:21:43.133Z,148043.03
2022-09-06T07:24:10.650Z,148043.03
2022-09-06T07:26:39.864Z,148072.41
2022-09-06T07:29:08.460Z,148074.81
2022-09-06T07:34:27.522Z,148229.03
2022-09-06T07:36:56.229Z,148268.16
2022-09-06T07:39:23.739Z,148309.78
2022-09-06T07:41:50.842Z,148326.91
2022-09-06T07:44:17.956Z,148328.13
2022-09-06T07:46:45.155Z,148314.66
2022-09-06T07:49:12.318Z,148336.69
2022-09-06T07:51:39.340Z,148375.94
2022-09-06T07:54:29.294Z,148408.97
2022-09-06T07:56:54.001Z,148412.66
2022-09-06T07:59:21.038Z,148456.69
2022-09-06T08:01:48.902Z,148418.75
2022-09-06T08:04:16.265Z,148454.28
2022-09-06T08:09:33.680Z,148504.47
2022-09-06T08:12:06.551Z,148581.69
2022-09-06T08:14:34.588Z,148584.09
2022-09-06T08:17:02.391Z,148660.06
2022-09-06T08:19:29.443Z,148722.50
2022-09-06T08:21:56.677Z,148728.72
2022-09-06T08:24:23.704Z,148778.91
2022-09-06T08:26:50.809Z,148777.69
2022-09-06T08:29:19.842Z,148863.47
2022-09-06T08:31:47.454Z,148837.72
2022-09-06T08:34:15.193Z,148914.97
2022-09-06T08:36:43.239Z,148948.06
2022-09-06T08:39:11.114Z,148970.13
2022-09-06T08:42:05.187Z,148991.00
2022-09-06T08:47:21.544Z,149048.59
2022-09-06T08:49:56.234Z,149054.69
2022-09-06T08:52:49.324Z,149092.78
2022-09-06T08:55:22.399Z,149096.47
2022-09-06T08:58:14.357Z,149101.38
2022-09-06T09:00:46.908Z,149118.50
2022-09-06T09:03:19.088Z,149145.50
2022-09-06T09:05:51.891Z,149211.75
2022-09-06T09:08:30.257Z,149252.22
2022-09-06T09:11:15.260Z,149198.25
2022-09-06T09:13:51.326Z,149273.09
2022-09-06T09:16:19.628Z,149223.97
2022-09-06T09:18:50.473Z,149303.78
2022-09-06T09:21:24.700Z,149302.53
2022-09-06T09:23:56.406Z,149300.09
2022-09-06T09:26:26.766Z,149317.28
2022-09-06T09:29:09.321Z,149339.34
2022-09-06T09:31:51.331Z,149332.00
2022-09-06T09:34:39.632Z,149329.53
2022-09-06T09:40:04.765Z,149356.53
2022-09-06T09:42:35.970Z,149430.19
2022-09-06T09:45:22.836Z,149440.00
2022-09-06T09:47:49.908Z,149427.75
2022-09-06T09:50:32.386Z,149425.28
2022-09-06T09:53:15.291Z,149478.03
2022-09-06T09:55:43.512Z,149503.81
2022-09-06T09:58:26.947Z,149523.44
2022-09-06T10:01:30.617Z,149538.16
2022-09-06T10:09:46.180Z,149583.63
2022-09-06T10:12:19.064Z,149646.25
2022-09-06T10:14:49.817Z,149619.22
2022-09-06T10:17:48.668Z,149656.06
2022-09-06T10:20:16.436Z,149668.34
2022-09-06T10:22:49.243Z,149665.88
2022-09-06T10:25:38.095Z,149625.34
2022-09-06T10:28:22.297Z,149633.94
2022-09-06T10:31:10.053Z,149591.00
2022-09-06T10:33:40.015Z,149592.22
2022-09-06T10:36:07.696Z,149615.53
2022-09-06T10:39:04.210Z,149664.66
2022-09-06T10:41:40.825Z,149690.47
2022-09-06T10:44:26.902Z,149717.44
2022-09-06T10:47:01.278Z,149652.38
2022-09-06T10:49:28.589Z,149656.06
2022-09-06T10:52:02.166Z,149665.88
2022-09-06T10:54:32.803Z,149624.13
2022-09-06T10:57:05.677Z,149626.63
2022-09-06T10:59:43.256Z,149648.69
2022-09-06T11:02:39.195Z,149690.47
2022-09-06T11:10:51.575Z,149729.72
2022-09-06T11:13:20.580Z,149781.34
2022-09-06T11:16:07.981Z,149753.09
2022-09-06T11:18:41.454Z,149761.69
2022-09-06T11:21:30.176Z,149810.84
2022-09-06T11:24:13.935Z,149840.28
2022-09-06T11:26:46.971Z,149852.59
2022-09-06T11:29:23.503Z,149884.53
2022-09-06T11:32:17.694Z,149882.03
2022-09-06T11:34:57.665Z,149909.13
2022-09-06T11:37:32.738Z,149904.22
2022-09-06T11:40:26.837Z,149896.81
2022-09-06T11:42:55.052Z,149959.50
2022-09-06T11:45:44.429Z,150000.03
2022-09-06T11:48:23.883Z,149975.44
2022-09-06T11:50:53.636Z,149988.94
2022-09-06T11:53:24.040Z,149952.09
2022-09-06T11:56:11.672Z,149930.03
2022-09-06T11:58:41.432Z,149937.38
2022-09-06T12:01:18.742Z,149904.22
2022-09-06T12:04:04.945Z,149933.69
2022-09-06T12:07:03.527Z,149968.09
2022-09-06T12:09:30.548Z,150009.88
2022-09-06T12:11:59.494Z,150083.63
2022-09-06T12:14:29.585Z,150051.69
2022-09-06T12:17:00.336Z,150102.06
2022-09-06T12:19:46.176Z,150119.28
2022-09-06T12:22:32.680Z,150135.22
2022-09-06T12:25:00.504Z,150197.97
2022-09-06T12:27:37.677Z,150151.22
2022-09-06T12:30:11.719Z,150147.53
2022-09-06T12:32:50.079Z,150156.16
2022-09-06T12:38:17.063Z,150196.72
2022-09-06T12:40:47.962Z,150153.66
2022-09-06T12:43:17.040Z,150130.31
2022-09-06T12:45:50.726Z,150044.28
2022-09-06T12:48:32.209Z,150089.75
2022-09-06T12:51:06.983Z,150136.44
2022-09-06T12:53:34.906Z,150147.53
2022-09-06T12:56:12.640Z,150099.59
2022-09-06T12:58:40.770Z,150063.97
2022-09-06T13:01:22.807Z,150046.78
2022-09-06T13:04:02.774Z,150009.88
2022-09-06T13:06:36.461Z,149992.66
2022-09-06T13:09:05.004Z,149945.97
2022-09-06T13:11:38.535Z,149918.94
2022-09-06T13:14:16.900Z,149904.22
2022-09-06T13:16:47.393Z,149859.94
2022-09-06T13:19:32.513Z,149754.31
2022-09-06T13:22:00.259Z,149848.91
2022-09-06T13:24:46.371Z,149842.75
2022-09-06T13:27:25.415Z,149798.53
2022-09-06T13:30:32.527Z,149825.56
2022-09-06T13:33:00.297Z,149776.44
2022-09-06T13:35:30.875Z,149818.19
2022-09-06T13:38:35.475Z,149797.31
2022-09-06T13:41:13.527Z,149791.16
2022-09-06T13:43:45.631Z,149809.56
2022-09-06T13:46:12.927Z,149789.94
2022-09-06T13:48:40.426Z,149729.72
2022-09-06T13:51:08.046Z,149764.19
2022-09-06T13:53:35.643Z,149772.72
2022-09-06T13:56:03.387Z,149782.59
2022-09-06T13:58:30.533Z,149801.00
2022-09-06T14:00:58.425Z,149796.06
2022-09-06T14:03:31.084Z,149782.59
2022-09-06T14:06:00.146Z,149799.75
2022-09-06T14:08:43.430Z,149783.81
2022-09-06T14:11:15.360Z,149767.81
2022-09-06T14:13:42.438Z,149766.59
2022-09-06T14:16:09.506Z,149749.41
2022-09-06T14:18:36.615Z,149815.75
2022-09-06T14:21:05.361Z,149839.06
2022-09-06T14:23:33.078Z,149877.13
2022-09-06T14:26:02.440Z,149914.03
2022-09-06T14:28:32.287Z,149920.16
2022-09-06T14:31:13.200Z,149877.13
2022-09-06T14:33:40.333Z,149928.75
2022-09-06T14:36:09.833Z,149960.69
2022-09-06T14:38:39.012Z,149906.63
2022-09-06T14:41:07.243Z,149928.75
2022-09-06T14:43:35.357Z,149925.06
2022-09-06T14:46:11.061Z,149992.66
2022-09-06T14:48:42.147Z,149957.00
2022-09-06T14:51:14.228Z,149990.22
2022-09-06T14:53:43.506Z,149990.22
2022-09-06T14:56:11.946Z,149990.22
2022-09-06T14:58:40.751Z,149986.53
2022-09-06T15:01:13.035Z,150049.19
2022-09-06T15:03:41.233Z,150068.91
2022-09-06T15:06:09.513Z,150039.38
2022-09-06T15:08:37.717Z,150063.97
2022-09-06T15:11:07.995Z,150100.84
2022-09-06T15:13:38.946Z,150066.41
2022-09-06T15:16:08.248Z,150090.97
2022-09-06T15:18:35.807Z,150113.09
2022-09-06T15:21:10.961Z,150072.53
2022-09-06T15:23:39.474Z,150084.84
2022-09-06T15:26:08.259Z,150092.25
2022-09-06T15:28:40.349Z,150044.28
2022-09-06T15:31:08.465Z,150036.91
2022-09-06T15:33:37.209Z,150067.63
2022-09-06T15:36:06.461Z,150103.28
2022-09-06T15:38:41.230Z,150148.75
2022-09-06T15:41:14.211Z,150197.97
2022-09-06T15:43:44.038Z,150252.03
2022-09-06T15:46:11.157Z,150454.94
2022-09-06T15:48:44.031Z,150624.78
2022-09-06T15:51:13.571Z,150792.13
2022-09-06T15:53:40.658Z,150952.19
2022-09-06T15:56:09.858Z,151037.16
2022-09-06T15:58:36.885Z,151155.44
2022-09-06T16:01:05.935Z,151171.47
2022-09-06T16:03:43.304Z,151122.13
2022-09-06T16:06:27.204Z,151128.28
2022-09-06T16:09:07.414Z,151157.91
2022-09-06T16:11:36.670Z,151302.03
2022-09-06T16:14:05.096Z,151297.13
2022-09-06T16:16:33.120Z,151371.03
2022-09-06T16:19:00.437Z,151415.41
2022-09-06T16:21:31.407Z,151405.53
2022-09-06T16:24:01.270Z,151343.91
2022-09-06T16:26:34.561Z,151509.06
2022-09-06T16:29:02.638Z,151655.78
2022-09-06T16:31:30.024Z,151744.56
2022-09-06T16:33:57.898Z,151442.50
2022-09-06T16:36:26.359Z,151518.97
2022-09-06T16:38:54.783Z,151661.97
2022-09-06T16:41:28.967Z,151610.13
2022-09-06T16:43:56.432Z,151666.91
2022-09-06T16:46:25.443Z,151727.31
2022-09-06T16:48:54.116Z,151732.22
2022-09-06T16:51:22.323Z,151824.75
2022-09-06T16:53:49.948Z,151814.88
2022-09-06T16:56:19.933Z,151797.59
2022-09-06T16:58:53.492Z,151684.13
2022-09-06T17:01:21.085Z,151617.53
2022-09-06T17:03:48.626Z,151615.09
2022-09-06T17:06:16.309Z,151430.22
2022-09-06T17:08:44.289Z,151028.59
2022-09-06T17:11:16.630Z,150745.38
2022-09-06T17:13:45.123Z,150526.34
2022-09-06T17:16:31.086Z,150370.09
2022-09-06T17:19:01.130Z,150245.91
2022-09-06T17:21:29.279Z,150152.44
2022-09-06T17:24:04.517Z,150098.38
2022-09-06T17:26:34.291Z,150034.41
2022-09-06T17:29:01.728Z,149987.75
2022-09-06T17:31:29.288Z,149894.38
2022-09-06T17:33:56.344Z,149890.69
2022-09-06T17:36:25.776Z,149831.69
2022-09-06T17:38:54.082Z,149774.00
2022-09-06T17:41:27.925Z,149659.75
2022-09-06T17:43:55.691Z,149595.91
2022-09-06T17:46:28.514Z,149570.06
2022-09-06T17:48:56.937Z,149543.09
2022-09-06T17:51:25.492Z,149522.22
2022-09-06T17:53:53.308Z,149498.91
2022-09-06T17:56:21.094Z,149454.72
2022-09-06T17:58:56.574Z,149405.59
2022-09-06T18:01:26.123Z,149397.00
2022-09-06T18:03:53.172Z,149362.63
2022-09-06T18:06:22.825Z,149317.28
2022-09-06T18:08:52.432Z,149320.94
2022-09-06T18:11:24.905Z,149286.59
2022-09-06T18:13:56.024Z,149262.09
2022-09-06T18:16:23.666Z,149206.84
2022-09-06T18:18:52.663Z,149226.44
2022-09-06T18:21:20.822Z,149211.75
2022-09-06T18:23:48.057Z,149176.16
2022-09-06T18:26:16.820Z,149145.50
2022-09-06T18:28:44.160Z,149076.78
2022-09-06T18:31:14.125Z,149134.47
2022-09-06T18:33:42.557Z,149116.09
2022-09-06T18:36:11.360Z,149114.88
2022-09-06T18:38:39.992Z,149086.63
2022-09-06T18:41:09.034Z,149069.44
2022-09-06T18:43:42.405Z,149019.19
2022-09-06T18:46:12.650Z,148951.75
2022-09-06T18:48:40.618Z,149006.91
2022-09-06T18:51:12.899Z,148977.50
2022-09-06T18:53:44.796Z,148959.13
2022-09-06T18:56:13.948Z,148905.13
2022-09-06T18:58:42.067Z,148883.06
2022-09-06T19:01:14.760Z,148879.38
2022-09-06T19:03:42.773Z,148917.44
2022-09-06T19:06:11.428Z,148895.34
2022-09-06T19:08:38.945Z,148863.47
2022-09-06T19:11:12.248Z,148843.88
2022-09-06T19:13:44.373Z,148812.00
2022-09-06T19:16:13.564Z,148831.59
2022-09-06T19:18:41.816Z,148826.72
2022-09-06T19:21:12.019Z,148813.22
2022-09-06T19:23:41.769Z,148787.47
2022-09-06T19:26:20.409Z,148789.94
2022-09-06T19:28:48.650Z,148731.13
2022-09-06T19:31:16.048Z,148711.50
2022-09-06T19:33:45.020Z,148713.94
2022-09-06T19:36:13.144Z,148690.66
2022-09-06T19:41:29.981Z,148656.38
2022-09-06T19:43:58.207Z,148652.69
2022-09-06T19:46:25.947Z,148660.06
2022-09-06T19:48:55.884Z,148651.47
2022-09-06T19:51:23.690Z,148640.44
2022-09-06T19:54:00.001Z,148589.00
2022-09-06T19:56:33.241Z,148615.94
2022-09-06T19:59:03.222Z,148579.22
2022-09-06T20:01:32.555Z,148535.06
2022-09-06T20:04:02.821Z,148503.22
2022-09-06T20:06:31.223Z,148494.69
2022-09-06T20:08:59.928Z,148535.06
2022-09-06T20:11:29.710Z,148552.25
2022-09-06T20:13:57.127Z,148504.47
2022-09-06T20:16:24.948Z,148483.63
2022-09-06T20:18:54.268Z,148478.75
2022-09-06T20:21:21.768Z,148498.31
2022-09-06T20:23:53.400Z,148503.22
2022-09-06T20:26:23.742Z,148478.75
2022-09-06T20:28:55.825Z,148406.50
2022-09-06T20:31:23.124Z,148459.16
2022-09-06T20:33:50.239Z,148432.22
2022-09-06T20:36:18.794Z,148415.09
2022-09-06T20:38:47.490Z,148397.97
2022-09-06T20:41:18.219Z,148401.63
2022-09-06T20:43:46.449Z,148361.25
2022-09-06T20:46:18.473Z,148385.72
2022-09-06T20:48:46.470Z,148375.94
2022-09-06T20:51:18.587Z,148290.19
2022-09-06T20:53:48.071Z,148349.00
2022-09-06T20:56:17.785Z,148313.44
2022-09-06T20:58:50.372Z,148299.97
2022-09-06T21:01:22.555Z,148297.56
2022-09-06T21:03:52.294Z,148299.97
2022-09-06T21:06:20.800Z,148318.34
2022-09-06T21:08:48.775Z,148282.84
2022-09-06T21:11:16.081Z,148273.06
2022-09-06T21:13:43.695Z,148286.53
2022-09-06T21:16:11.019Z,148323.22
2022-09-06T21:18:38.277Z,148331.81
2022-09-06T21:21:07.782Z,148307.34
2022-09-06T21:23:37.323Z,148315.91
2022-09-06T21:26:07.539Z,148311.03
2022-09-06T21:28:36.942Z,148319.56
2022-09-06T21:31:12.000Z,148314.66
2022-09-06T21:33:41.259Z,148290.19
2022-09-06T21:36:11.219Z,148251.06
2022-09-06T21:38:43.662Z,148280.41
2022-09-06T21:41:12.105Z,148268.16
2022-09-06T21:43:39.711Z,148252.28
2022-09-06T21:46:11.322Z,148233.91
2022-09-06T21:48:39.604Z,148231.44
2022-09-06T21:51:08.107Z,148243.69
2022-09-06T21:53:36.383Z,148238.81
2022-09-06T21:56:04.891Z,148246.19
2022-09-06T21:58:32.822Z,148244.91
2022-09-06T22:01:01.838Z,148236.34
2022-09-06T22:03:31.677Z,148219.25
2022-09-06T22:05:58.766Z,148204.53
2022-09-06T22:08:26.041Z,148207.00
2022-09-06T22:10:53.194Z,148224.13
2022-09-06T22:13:20.478Z,148230.25
2022-09-06T22:15:47.558Z,148221.66
2022-09-06T22:18:14.652Z,148202.09
2022-09-06T22:20:41.775Z,148173.97
2022-09-06T22:23:09.865Z,148209.47
2022-09-06T22:25:36.978Z,148207.00
2022-09-06T22:28:04.102Z,148183.75
2022-09-06T22:30:31.174Z,148167.81
2022-09-06T22:32:58.292Z,148131.06
2022-09-06T22:35:25.379Z,148132.34
2022-09-06T22:37:52.406Z,148045.50
2022-09-06T22:40:19.423Z,148133.53
2022-09-06T22:42:46.474Z,148126.19
2022-09-06T22:45:13.500Z,148102.94
2022-09-06T22:47:40.723Z,148118.88
2022-09-06T22:50:08.392Z,148099.31
2022-09-06T22:52:35.440Z,148062.63
2022-09-06T22:55:02.753Z,148089.50
2022-09-06T22:57:29.785Z,148079.72
2022-09-06T22:59:56.872Z,148057.69
2022-09-06T23:02:24.029Z,148068.72
2022-09-06T23:04:51.417Z,148066.25
2022-09-06T23:07:18.518Z,148079.72
2022-09-06T23:09:45.538Z,148032.03
2022-09-06T23:12:12.658Z,148082.19
2022-09-06T23:14:39.690Z,148072.41
2022-09-06T23:17:06.790Z,148061.38
2022-09-06T23:19:33.823Z,148046.69
2022-09-06T23:22:00.898Z,148052.78
2022-09-06T23:24:28.192Z,148046.69
2022-09-06T23:26:55.639Z,148008.78
2022-09-06T23:29:23.077Z,148076.03
2022-09-06T23:31:50.223Z,148049.16
2022-09-06T23:34:17.381Z,148035.72
2022-09-06T23:36:45.224Z,147994.13
2022-09-06T23:39:12.337Z,148014.91
2022-09-06T23:41:39.376Z,148038.13
2022-09-06T23:44:06.704Z,148038.13
2022-09-06T23:46:33.812Z,148054.06
2022-09-06T23:49:00.902Z,148074.81
2022-09-06T23:51:28.005Z,148057.69
2022-09-06T23:53:55.065Z,147986.78
2022-09-06T23:56:22.369Z,148035.72
2022-09-06T23:58:49.464Z,148019.78
